createdAt,value
2019-01-19T00:02:59.978Z,17.17
2019-01-19T00:06:12.105Z,16.27
2019-01-19T00:08:58.282Z,16.37
2019-01-19T00:11:59.424Z,15.60
2019-01-19T00:15:00.865Z,14.63
2019-01-19T00:18:07.233Z,13.80
2019-01-19T00:21:33.948Z,15.58
2019-01-19T00:24:56.793Z,16.00
2019-01-19T00:27:53.764Z,18.00
2019-01-19T00:31:01.412Z,16.70
2019-01-19T00:33:58.676Z,16.30
2019-01-19T00:37:08.933Z,17.27
2019-01-19T00:40:17.510Z,22.03
2019-01-19T00:43:18.472Z,18.20
2019-01-19T00:46:33.083Z,17.67
2019-01-19T00:49:21.243Z,16.87
2019-01-19T00:52:17.442Z,17.85
2019-01-19T00:55:05.573Z,16.57
2019-01-19T00:58:16.730Z,17.60
2019-01-19T01:00:56.709Z,18.83
2019-01-19T01:03:38.336Z,20.07
2019-01-19T01:06:39.446Z,20.12
2019-01-19T01:09:07.320Z,21.00
2019-01-19T01:12:09.999Z,15.85
2019-01-19T01:15:08.843Z,18.87
2019-01-19T01:17:49.165Z,19.63
2019-01-19T01:21:25.071Z,21.00
2019-01-19T01:24:35.647Z,19.50
2019-01-19T01:27:37.618Z,19.20
2019-01-19T01:30:51.447Z,20.37
2019-01-19T01:33:44.797Z,14.17
2019-01-19T01:36:47.347Z,17.37
2019-01-19T01:39:43.065Z,15.75
2019-01-19T01:43:09.786Z,18.90
2019-01-19T01:46:09.260Z,20.17
2019-01-19T01:49:19.732Z,18.23
2019-01-19T01:52:12.583Z,16.80
2019-01-19T01:55:16.977Z,16.83
2019-01-19T01:58:18.420Z,16.03
2019-01-19T02:01:13.334Z,15.80
2019-01-19T02:04:18.025Z,14.95
2019-01-19T02:07:28.434Z,16.73
2019-01-19T02:10:40.054Z,16.97
2019-01-19T02:13:29.329Z,11.63
2019-01-19T02:16:36.976Z,13.07
2019-01-19T02:19:39.879Z,13.93
2019-01-19T02:23:00.403Z,18.37
2019-01-19T02:29:01.817Z,23.07
2019-01-19T02:32:15.474Z,18.80
2019-01-19T02:35:16.781Z,12.73
2019-01-19T02:38:34.679Z,18.07
2019-01-19T02:41:44.932Z,16.23
2019-01-19T02:44:49.042Z,20.90
2019-01-19T02:47:41.941Z,15.70
2019-01-19T02:50:29.651Z,19.70
2019-01-19T02:53:40.152Z,18.37
2019-01-19T02:56:23.555Z,24.23
2019-01-19T02:59:26.874Z,24.27
2019-01-19T03:02:20.640Z,17.33
2019-01-19T03:04:58.850Z,22.73
2019-01-19T03:07:45.556Z,19.77
2019-01-19T03:11:01.637Z,21.00
2019-01-19T03:14:10.590Z,21.20
2019-01-19T03:17:20.664Z,22.13
2019-01-19T03:20:17.684Z,18.97
2019-01-19T03:23:21.044Z,16.15
2019-01-19T03:26:03.553Z,17.07
2019-01-19T03:28:51.477Z,16.97
2019-01-19T03:31:53.589Z,17.70
2019-01-19T03:35:20.839Z,24.17
2019-01-19T03:38:28.982Z,20.37
2019-01-19T03:41:40.379Z,21.27
2019-01-19T03:45:00.845Z,18.80
2019-01-19T03:47:55.849Z,18.13
2019-01-19T03:50:41.439Z,18.80
2019-01-19T03:53:49.900Z,22.73
2019-01-19T03:56:50.217Z,21.50
2019-01-19T03:59:40.519Z,20.30
2019-01-19T04:02:54.385Z,19.23
2019-01-19T04:05:57.414Z,19.93
2019-01-19T04:09:11.587Z,15.23
2019-01-19T04:12:42.721Z,21.00
2019-01-19T04:15:28.043Z,21.23
2019-01-19T04:18:20.784Z,22.53
2019-01-19T04:21:11.544Z,23.73
2019-01-19T04:23:46.053Z,21.05
2019-01-19T04:26:41.971Z,17.60
2019-01-19T04:29:12.878Z,21.30
2019-01-19T04:31:43.912Z,17.33
2019-01-19T04:34:15.080Z,21.33
2019-01-19T04:36:46.573Z,20.97
2019-01-19T04:39:18.217Z,19.95
2019-01-19T04:41:49.446Z,23.63
2019-01-19T04:44:21.106Z,17.00
2019-01-19T04:46:52.201Z,16.03
2019-01-19T04:49:23.358Z,22.10
2019-01-19T04:51:54.467Z,15.50
2019-01-19T04:54:25.703Z,23.50
2019-01-19T04:56:56.850Z,21.33
2019-01-19T04:59:27.901Z,20.37
2019-01-19T05:01:59.724Z,20.13
2019-01-19T05:04:31.376Z,19.97
2019-01-19T05:07:03.094Z,16.23
2019-01-19T05:09:34.189Z,19.00
2019-01-19T05:12:05.989Z,16.47
2019-01-19T05:14:36.861Z,17.93
2019-01-19T05:17:08.010Z,17.03
2019-01-19T05:19:39.147Z,25.23
2019-01-19T05:22:10.301Z,17.17
2019-01-19T05:24:41.549Z,23.63
2019-01-19T05:27:12.713Z,20.50
2019-01-19T05:29:43.833Z,18.53
2019-01-19T05:32:15.583Z,15.50
2019-01-19T05:34:46.764Z,17.70
2019-01-19T05:37:18.020Z,16.57
2019-01-19T05:39:48.965Z,16.35
2019-01-19T05:42:19.895Z,21.17
2019-01-19T05:44:50.654Z,18.63
2019-01-19T05:47:21.619Z,14.43
2019-01-19T05:49:52.455Z,18.33
2019-01-19T05:52:23.337Z,19.07
2019-01-19T05:54:54.385Z,21.27
2019-01-19T05:57:25.256Z,16.20
2019-01-19T05:59:56.150Z,15.80
2019-01-19T06:02:28.495Z,16.63
2019-01-19T06:04:58.462Z,37.10
2019-01-19T06:07:29.504Z,16.67
2019-01-19T06:10:00.289Z,18.53
2019-01-19T06:12:31.341Z,16.23
2019-01-19T06:15:02.281Z,17.00
2019-01-19T06:17:33.314Z,14.40
2019-01-19T06:20:04.681Z,17.53
2019-01-19T06:22:35.668Z,18.13
2019-01-19T06:25:07.582Z,20.00
2019-01-19T06:27:38.690Z,18.70
2019-01-19T06:30:13.377Z,16.70
2019-01-19T06:32:44.382Z,19.70
2019-01-19T06:35:15.376Z,18.30
2019-01-19T06:37:46.502Z,14.87
2019-01-19T06:40:17.934Z,18.07
2019-01-19T06:42:51.951Z,17.83
2019-01-19T06:45:27.379Z,21.90
2019-01-19T06:47:59.414Z,20.10
2019-01-19T06:50:30.231Z,22.60
2019-01-19T06:53:01.199Z,23.40
2019-01-19T06:55:36.549Z,20.10
2019-01-19T06:58:07.576Z,21.93
2019-01-19T07:00:38.347Z,19.77
2019-01-19T07:03:09.270Z,19.80
2019-01-19T07:05:40.199Z,23.50
2019-01-19T07:08:11.306Z,26.93
2019-01-19T07:10:42.655Z,21.47
2019-01-19T07:13:13.613Z,23.60
2019-01-19T07:15:44.809Z,22.57
2019-01-19T07:18:15.789Z,31.70
2019-01-19T07:20:47.221Z,22.83
2019-01-19T07:23:18.619Z,19.03
2019-01-19T07:25:49.919Z,21.73
2019-01-19T07:28:21.189Z,22.50
2019-01-19T07:30:52.859Z,31.80
2019-01-19T07:33:25.247Z,28.73
2019-01-19T07:35:57.224Z,25.77
2019-01-19T07:38:29.159Z,26.47
2019-01-19T07:41:00.237Z,24.20
2019-01-19T07:43:31.893Z,22.70
2019-01-19T07:46:03.991Z,22.70
2019-01-19T07:48:35.184Z,23.67
2019-01-19T07:51:06.417Z,22.77
2019-01-19T07:53:37.469Z,22.07
2019-01-19T07:56:08.535Z,22.47
2019-01-19T07:58:40.268Z,18.73
2019-01-19T08:01:11.869Z,18.53
2019-01-19T08:03:43.382Z,23.07
2019-01-19T08:06:14.421Z,22.37
2019-01-19T08:08:45.617Z,20.70
2019-01-19T08:11:16.892Z,19.73
2019-01-19T08:13:48.115Z,18.10
2019-01-19T08:16:19.361Z,21.67
2019-01-19T08:18:50.818Z,26.67
2019-01-19T08:21:22.266Z,24.60
2019-01-19T08:23:53.243Z,30.57
2019-01-19T08:26:24.123Z,31.73
2019-01-19T08:28:55.366Z,26.33
2019-01-19T08:31:26.549Z,30.20
2019-01-19T08:33:57.910Z,31.77
2019-01-19T08:36:29.279Z,24.20
2019-01-19T08:39:00.620Z,21.43
2019-01-19T08:41:33.157Z,24.33
2019-01-19T08:44:07.150Z,22.97
2019-01-19T08:46:38.640Z,23.67
2019-01-19T08:49:10.093Z,30.00
2019-01-19T08:51:41.770Z,29.43
2019-01-19T08:54:13.693Z,27.33
2019-01-19T08:56:45.007Z,19.63
2019-01-19T08:59:16.663Z,26.67
2019-01-19T09:01:47.840Z,28.50
2019-01-19T09:04:19.353Z,25.57
2019-01-19T09:06:50.538Z,27.27
2019-01-19T09:09:21.955Z,28.07
2019-01-19T09:11:53.043Z,26.57
2019-01-19T09:14:23.582Z,21.07
2019-01-19T09:16:54.865Z,25.33
2019-01-19T09:19:26.121Z,26.47
2019-01-19T09:21:57.596Z,20.83
2019-01-19T09:24:30.401Z,32.20
2019-01-19T09:27:01.551Z,29.87
2019-01-19T09:29:32.852Z,28.77
2019-01-19T09:32:04.901Z,26.13
2019-01-19T09:34:36.490Z,30.13
2019-01-19T09:37:06.838Z,27.80
2019-01-19T09:39:38.497Z,21.40
2019-01-19T09:42:10.220Z,27.97
2019-01-19T09:44:41.822Z,22.50
2019-01-19T09:47:13.486Z,25.20
2019-01-19T09:49:43.941Z,23.30
2019-01-19T09:52:21.160Z,20.03
2019-01-19T09:54:48.420Z,23.33
2019-01-19T09:57:20.168Z,21.00
2019-01-19T09:59:51.859Z,22.87
2019-01-19T10:02:23.368Z,19.40
2019-01-19T10:04:54.727Z,18.40
2019-01-19T10:07:27.394Z,23.23
2019-01-19T10:09:59.204Z,23.40
2019-01-19T10:12:31.991Z,18.80
2019-01-19T10:15:03.800Z,19.87
2019-01-19T10:17:36.380Z,22.47
2019-01-19T10:20:10.433Z,22.57
2019-01-19T10:22:42.174Z,26.97
2019-01-19T10:25:14.761Z,17.33
2019-01-19T10:27:46.367Z,20.77
2019-01-19T10:30:23.255Z,17.47
2019-01-19T10:32:54.643Z,17.93
2019-01-19T10:35:26.408Z,20.47
2019-01-19T10:37:58.401Z,19.10
2019-01-19T10:40:30.029Z,29.87
2019-01-19T10:43:01.745Z,101.50
2019-01-19T10:45:33.230Z,17.67
2019-01-19T10:48:05.457Z,22.43
2019-01-19T10:50:36.829Z,18.03
2019-01-19T10:53:08.494Z,21.93
2019-01-19T10:55:39.821Z,25.07
2019-01-19T10:58:11.186Z,16.60
2019-01-19T11:00:42.836Z,22.00
2019-01-19T11:03:14.435Z,20.87
2019-01-19T11:05:45.836Z,19.47
2019-01-19T11:08:17.555Z,20.03
2019-01-19T11:10:48.908Z,18.07
2019-01-19T11:13:20.534Z,14.60
2019-01-19T11:15:51.816Z,17.83
2019-01-19T11:18:26.041Z,19.83
2019-01-19T11:20:57.439Z,18.73
2019-01-19T11:23:28.765Z,19.53
2019-01-19T11:26:00.018Z,20.20
2019-01-19T11:28:31.463Z,17.43
2019-01-19T11:31:03.003Z,20.80
2019-01-19T11:33:34.455Z,23.40
2019-01-19T11:36:06.066Z,19.00
2019-01-19T11:38:37.120Z,19.10
2019-01-19T11:41:08.454Z,18.27
2019-01-19T11:43:39.673Z,18.23
2019-01-19T11:46:11.181Z,16.77
2019-01-19T11:48:42.575Z,15.33
2019-01-19T11:51:13.721Z,17.10
2019-01-19T11:53:44.962Z,17.93
2019-01-19T11:58:46.568Z,18.40
2019-01-19T12:01:18.869Z,15.33
2019-01-19T12:03:50.275Z,15.10
2019-01-19T12:06:21.553Z,14.83
2019-01-19T12:08:52.947Z,17.77
2019-01-19T12:11:24.344Z,14.60
2019-01-19T12:13:55.800Z,13.53
2019-01-19T12:16:27.031Z,15.77
2019-01-19T12:18:58.346Z,12.50
2019-01-19T12:21:29.625Z,11.13
2019-01-19T12:24:00.861Z,13.77
2019-01-19T12:26:33.132Z,18.20
2019-01-19T12:29:04.332Z,15.60
2019-01-19T12:31:35.592Z,17.87
2019-01-19T12:34:07.259Z,15.60
2019-01-19T12:36:38.684Z,15.53
2019-01-19T12:39:10.216Z,16.90
2019-01-19T12:41:41.451Z,17.70
2019-01-19T12:44:12.898Z,15.87
2019-01-19T12:46:44.400Z,17.83
2019-01-19T12:49:15.799Z,24.50
2019-01-19T12:51:47.170Z,24.37
2019-01-19T12:54:18.783Z,20.37
2019-01-19T12:56:49.855Z,22.67
2019-01-19T13:01:51.544Z,23.27
2019-01-19T13:04:22.935Z,26.37
2019-01-19T13:07:19.563Z,26.80
2019-01-19T13:09:57.136Z,19.30
2019-01-19T13:13:00.764Z,22.70
2019-01-19T13:16:37.557Z,20.50
2019-01-19T13:19:38.917Z,20.63
2019-01-19T13:22:57.709Z,21.07
2019-01-19T13:26:23.948Z,23.93
2019-01-19T13:29:45.181Z,16.43
2019-01-19T13:32:57.003Z,22.67
2019-01-19T13:36:26.941Z,21.27
2019-01-19T13:39:14.819Z,21.50
2019-01-19T13:42:39.186Z,20.03
2019-01-19T13:45:46.253Z,23.70
2019-01-19T13:48:58.633Z,17.20
2019-01-19T13:52:07.291Z,17.93
2019-01-19T13:55:18.675Z,21.23
2019-01-19T13:58:28.260Z,20.87
2019-01-19T14:01:49.271Z,22.00
2019-01-19T14:07:58.351Z,18.23
2019-01-19T14:10:55.301Z,15.80
2019-01-19T14:14:16.844Z,19.10
2019-01-19T14:17:15.450Z,19.60
2019-01-19T14:20:00.206Z,15.40
2019-01-19T14:23:10.930Z,18.70
2019-01-19T14:26:04.400Z,18.70
2019-01-19T14:29:11.457Z,20.10
2019-01-19T14:32:19.093Z,23.57
2019-01-19T14:35:21.614Z,26.03
2019-01-19T14:38:32.406Z,40.63
2019-01-19T14:41:24.360Z,36.27
2019-01-19T14:44:29.832Z,41.30
2019-01-19T14:47:26.222Z,36.80
2019-01-19T14:50:24.457Z,41.50
2019-01-19T14:53:52.354Z,25.50
2019-01-19T14:57:19.339Z,30.23
2019-01-19T15:00:20.617Z,30.83
2019-01-19T15:03:14.208Z,29.47
2019-01-19T15:06:10.268Z,34.90
2019-01-19T15:09:03.950Z,39.00
2019-01-19T15:11:58.223Z,40.13
2019-01-19T15:15:01.925Z,44.63
2019-01-19T15:17:58.504Z,25.43
2019-01-19T15:20:45.428Z,31.07
2019-01-19T15:23:52.901Z,33.87
2019-01-19T15:26:59.770Z,31.20
2019-01-19T15:30:16.459Z,24.67
2019-01-19T15:33:04.246Z,35.37
2019-01-19T15:36:03.180Z,28.50
2019-01-19T15:38:59.783Z,28.37
2019-01-19T15:41:52.519Z,25.60
2019-01-19T15:44:54.189Z,26.23
2019-01-19T15:48:07.890Z,28.17
2019-01-19T15:51:31.581Z,28.03
2019-01-19T15:54:43.641Z,29.03
2019-01-19T15:57:33.538Z,28.47
2019-01-19T16:00:17.945Z,24.43
2019-01-19T16:03:15.429Z,29.63
2019-01-19T16:06:35.788Z,30.60
2019-01-19T16:09:56.618Z,25.43
2019-01-19T16:12:59.254Z,31.27
2019-01-19T16:16:17.380Z,25.03
2019-01-19T16:19:18.632Z,27.37
2019-01-19T16:22:38.485Z,30.00
2019-01-19T16:25:30.069Z,30.47
2019-01-19T16:29:03.210Z,26.63
2019-01-19T16:32:19.884Z,40.83
2019-01-19T16:35:26.098Z,32.27
2019-01-19T16:38:42.539Z,37.37
2019-01-19T16:41:43.103Z,35.23
2019-01-19T16:44:51.012Z,37.27
2019-01-19T16:47:58.815Z,42.47
2019-01-19T16:51:13.322Z,38.07
2019-01-19T16:54:05.317Z,36.60
2019-01-19T16:57:24.850Z,32.60
2019-01-19T17:00:36.971Z,32.57
2019-01-19T17:03:30.987Z,38.07
2019-01-19T17:07:07.429Z,36.70
2019-01-19T17:10:12.819Z,38.63
2019-01-19T17:13:21.943Z,35.00
2019-01-19T17:16:26.254Z,27.27
2019-01-19T17:19:48.429Z,30.03
2019-01-19T17:22:55.338Z,26.27
2019-01-19T17:25:54.007Z,28.83
2019-01-19T17:28:43.201Z,28.97
2019-01-19T17:31:57.834Z,30.00
2019-01-19T17:34:52.115Z,32.20
2019-01-19T17:38:07.207Z,34.13
2019-01-19T17:41:21.617Z,33.20
2019-01-19T17:44:30.837Z,34.17
2019-01-19T17:47:40.207Z,33.73
2019-01-19T17:50:51.084Z,30.83
2019-01-19T17:54:10.831Z,29.27
2019-01-19T17:57:09.852Z,28.37
2019-01-19T18:00:15.751Z,34.10
2019-01-19T18:03:15.094Z,31.37
2019-01-19T18:06:39.485Z,32.80
2019-01-19T18:09:32.409Z,34.17
2019-01-19T18:12:32.808Z,33.73
2019-01-19T18:15:29.221Z,38.97
2019-01-19T18:18:41.452Z,35.83
2019-01-19T18:21:41.258Z,32.90
2019-01-19T18:27:42.591Z,37.20
2019-01-19T18:31:15.034Z,30.97
2019-01-19T18:33:55.951Z,31.87
2019-01-19T18:37:12.629Z,29.93
2019-01-19T18:40:22.892Z,33.77
2019-01-19T18:43:12.401Z,31.47
2019-01-19T18:46:01.137Z,29.20
2019-01-19T18:49:09.088Z,32.17
2019-01-19T18:52:19.794Z,30.80
2019-01-19T18:55:25.327Z,29.33
2019-01-19T18:58:31.605Z,29.97
2019-01-19T19:01:46.534Z,35.90
2019-01-19T19:05:11.864Z,27.83
2019-01-19T19:08:14.648Z,28.27
2019-01-19T19:11:17.247Z,23.30
2019-01-19T19:14:11.931Z,30.17
2019-01-19T19:17:23.759Z,32.27
2019-01-19T19:20:24.065Z,27.07
2019-01-19T19:23:47.579Z,29.87
2019-01-19T19:26:58.012Z,33.00
2019-01-19T19:30:02.726Z,30.87
2019-01-19T19:33:09.062Z,29.30
2019-01-19T19:36:19.731Z,31.23
2019-01-19T19:39:40.687Z,24.60
2019-01-19T19:42:24.478Z,23.20
2019-01-19T19:45:42.717Z,29.03
2019-01-19T19:48:57.166Z,26.67
2019-01-19T19:52:06.294Z,25.37
2019-01-19T19:54:37.973Z,26.40
2019-01-19T19:57:08.944Z,25.60
2019-01-19T19:59:39.867Z,26.00
2019-01-19T20:02:10.889Z,24.20
2019-01-19T20:04:43.303Z,24.27
2019-01-19T20:07:14.469Z,28.67
2019-01-19T20:09:45.599Z,25.83
2019-01-19T20:12:20.277Z,24.00
2019-01-19T20:14:51.400Z,25.20
2019-01-19T20:17:23.315Z,23.07
2019-01-19T20:19:55.507Z,25.37
2019-01-19T20:22:26.959Z,25.47
2019-01-19T20:24:58.409Z,22.20
2019-01-19T20:27:29.697Z,22.03
2019-01-19T20:30:01.510Z,23.27
2019-01-19T20:32:35.956Z,22.57
2019-01-19T20:35:08.072Z,18.60
2019-01-19T20:37:39.373Z,29.03
2019-01-19T20:40:10.832Z,23.93
2019-01-19T20:42:41.963Z,28.03
2019-01-19T20:45:14.001Z,27.43
2019-01-19T20:47:45.068Z,28.57
2019-01-19T20:50:16.375Z,27.40
2019-01-19T20:52:47.797Z,28.27
2019-01-19T20:55:19.271Z,39.43
2019-01-19T20:57:50.716Z,29.83
2019-01-19T21:00:22.415Z,28.10
2019-01-19T21:02:53.830Z,31.07
2019-01-19T21:05:25.406Z,33.23
2019-01-19T21:07:56.615Z,25.40
2019-01-19T21:10:31.696Z,24.03
2019-01-19T21:13:00.288Z,22.70
2019-01-19T21:15:31.478Z,21.70
2019-01-19T21:18:02.555Z,23.23
2019-01-19T21:20:34.496Z,21.73
2019-01-19T21:23:05.879Z,22.47
2019-01-19T21:25:37.217Z,20.50
2019-01-19T21:28:08.518Z,20.70
2019-01-19T21:30:39.596Z,22.73
2019-01-19T21:33:10.738Z,21.40
2019-01-19T21:35:41.691Z,19.90
2019-01-19T21:38:12.703Z,25.53
2019-01-19T21:40:43.891Z,23.20
2019-01-19T21:43:15.169Z,26.27
2019-01-19T21:45:46.188Z,23.30
2019-01-19T21:48:19.529Z,20.30
2019-01-19T21:50:50.785Z,18.63
2019-01-19T21:53:22.240Z,19.57
2019-01-19T21:55:53.402Z,22.63
2019-01-19T21:58:24.538Z,28.50
2019-01-19T22:00:55.551Z,30.00
2019-01-19T22:03:26.544Z,30.30
2019-01-19T22:05:57.730Z,20.67
2019-01-19T22:08:28.849Z,18.93
2019-01-19T22:11:00.022Z,15.50
2019-01-19T22:13:32.161Z,21.93
2019-01-19T22:16:03.390Z,14.83
2019-01-19T22:18:34.469Z,19.13
2019-01-19T22:21:05.697Z,14.80
2019-01-19T22:23:36.890Z,13.57
2019-01-19T22:26:09.447Z,15.03
2019-01-19T22:28:40.472Z,15.53
2019-01-19T22:31:11.365Z,17.63
2019-01-19T22:33:42.725Z,14.63
2019-01-19T22:36:13.876Z,18.80
2019-01-19T22:38:44.957Z,15.87
2019-01-19T22:41:16.195Z,14.13
2019-01-19T22:43:47.599Z,18.73
2019-01-19T22:46:18.694Z,20.27
2019-01-19T22:48:49.803Z,14.20
2019-01-19T22:51:20.758Z,13.43
2019-01-19T22:53:52.136Z,14.37
2019-01-19T22:56:23.131Z,11.37
2019-01-19T22:58:54.380Z,11.73
2019-01-19T23:01:48.393Z,13.03
2019-01-19T23:04:19.871Z,13.43
2019-01-19T23:06:51.265Z,11.23
2019-01-19T23:09:25.512Z,12.43
2019-01-19T23:11:59.624Z,13.63
2019-01-19T23:14:47.405Z,16.77
2019-01-19T23:17:23.576Z,13.83
2019-01-19T23:19:57.447Z,14.43
2019-01-19T23:22:36.434Z,12.87
2019-01-19T23:25:13.638Z,16.80
2019-01-19T23:28:13.674Z,18.67
2019-01-19T23:30:45.011Z,14.97
2019-01-19T23:33:16.036Z,13.07
2019-01-19T23:36:03.447Z,13.97
2019-01-19T23:38:40.489Z,15.83
2019-01-19T23:41:22.895Z,9.73
2019-01-19T23:44:01.977Z,12.30
2019-01-19T23:46:37.650Z,12.33
2019-01-19T23:49:15.043Z,11.47
2019-01-19T23:51:47.458Z,12.70
2019-01-19T23:54:21.769Z,10.63
2019-01-19T23:56:53.172Z,11.43
2019-01-19T23:59:24.749Z,13.67
